sensor_id;sensor_type;location;lat;lon;timestamp;temperature;humidity
16102;DHT22;56411;52.964;10.540;2022-12-22T00:01:52;6.30;99.90
16102;DHT22;56411;52.964;10.540;2022-12-22T00:04:38;6.30;99.90
16102;DHT22;56411;52.964;10.540;2022-12-22T00:07:25;6.30;99.90
16102;DHT22;56411;52.964;10.540;2022-12-22T00:10:09;6.30;99.90
16102;DHT22;56411;52.964;10.540;2022-12-22T00:12:53;6.30;99.90
16102;DHT22;56411;52.964;10.540;2022-12-22T00:15:38;6.30;99.90
16102;DHT22;56411;52.964;10.540;2022-12-22T00:18:22;6.30;99.90
16102;DHT22;56411;52.964;10.540;2022-12-22T00:21:09;6.30;99.90
16102;DHT22;56411;52.964;10.540;2022-12-22T00:23:55;6.30;99.90
16102;DHT22;56411;52.964;10.540;2022-12-22T00:26:39;6.30;99.90
16102;DHT22;56411;52.964;10.540;2022-12-22T00:29:24;6.30;99.90
16102;DHT22;56411;52.964;10.540;2022-12-22T00:32:12;6.30;99.90
16102;DHT22;56411;52.964;10.540;2022-12-22T00:34:57;6.30;99.90
16102;DHT22;56411;52.964;10.540;2022-12-22T00:37:42;6.30;99.90
16102;DHT22;56411;52.964;10.540;2022-12-22T00:40:27;6.30;99.90
16102;DHT22;56411;52.964;10.540;2022-12-22T00:43:12;6.30;99.90
16102;DHT22;56411;52.964;10.540;2022-12-22T00:45:57;6.30;99.90
16102;DHT22;56411;52.964;10.540;2022-12-22T00:48:43;6.30;99.90
16102;DHT22;56411;52.964;10.540;2022-12-22T00:51:28;6.30;99.90
16102;DHT22;56411;52.964;10.540;2022-12-22T00:54:15;6.30;99.90
16102;DHT22;56411;52.964;10.540;2022-12-22T00:57:02;6.30;99.90
16102;DHT22;56411;52.964;10.540;2022-12-22T00:59:48;6.40;99.90
16102;DHT22;56411;52.964;10.540;2022-12-22T01:02:33;6.40;99.90
16102;DHT22;56411;52.964;10.540;2022-12-22T01:05:18;6.40;99.90
16102;DHT22;56411;52.964;10.540;2022-12-22T01:08:02;6.40;99.90
16102;DHT22;56411;52.964;10.540;2022-12-22T01:10:47;6.40;99.90
16102;DHT22;56411;52.964;10.540;2022-12-22T01:13:33;6.40;99.90
16102;DHT22;56411;52.964;10.540;2022-12-22T01:16:18;6.30;99.90
16102;DHT22;56411;52.964;10.540;2022-12-22T01:19:02;6.30;99.90
16102;DHT22;56411;52.964;10.540;2022-12-22T01:21:46;6.40;99.90
16102;DHT22;56411;52.964;10.540;2022-12-22T01:24:31;6.40;99.90
16102;DHT22;56411;52.964;10.540;2022-12-22T01:27:15;6.40;99.90
16102;DHT22;56411;52.964;10.540;2022-12-22T01:30:01;6.40;99.90
16102;DHT22;56411;52.964;10.540;2022-12-22T01:32:45;6.40;99.90
16102;DHT22;56411;52.964;10.540;2022-12-22T01:35:32;6.30;99.90
16102;DHT22;56411;52.964;10.540;2022-12-22T01:38:17;6.30;99.90
16102;DHT22;56411;52.964;10.540;2022-12-22T01:41:03;6.30;99.90
16102;DHT22;56411;52.964;10.540;2022-12-22T01:43:48;6.30;99.90
16102;DHT22;56411;52.964;10.540;2022-12-22T01:46:42;6.30;99.90
16102;DHT22;56411;52.964;10.540;2022-12-22T01:49:29;6.40;99.90
16102;DHT22;56411;52.964;10.540;2022-12-22T01:52:18;6.40;99.90
16102;DHT22;56411;52.964;10.540;2022-12-22T01:55:07;6.40;99.90
16102;DHT22;56411;52.964;10.540;2022-12-22T01:57:53;6.40;99.90
16102;DHT22;56411;52.964;10.540;2022-12-22T02:00:38;6.40;99.90
16102;DHT22;56411;52.964;10.540;2022-12-22T02:03:24;6.40;99.90
16102;DHT22;56411;52.964;10.540;2022-12-22T02:06:14;6.40;99.90
16102;DHT22;56411;52.964;10.540;2022-12-22T02:09:15;6.40;99.90
16102;DHT22;56411;52.964;10.540;2022-12-22T02:12:09;6.40;99.90
16102;DHT22;56411;52.964;10.540;2022-12-22T02:15:00;6.40;99.90
16102;DHT22;56411;52.964;10.540;2022-12-22T02:17:54;6.40;99.90
16102;DHT22;56411;52.964;10.540;2022-12-22T02:20:47;6.50;99.90
16102;DHT22;56411;52.964;10.540;2022-12-22T02:23:44;6.50;99.90
16102;DHT22;56411;52.964;10.540;2022-12-22T02:26:34;6.50;99.90
16102;DHT22;56411;52.964;10.540;2022-12-22T02:29:24;6.50;99.90
16102;DHT22;56411;52.964;10.540;2022-12-22T02:32:09;6.50;99.90
16102;DHT22;56411;52.964;10.540;2022-12-22T02:34:54;6.50;99.90
16102;DHT22;56411;52.964;10.540;2022-12-22T02:37:44;6.50;99.90
16102;DHT22;56411;52.964;10.540;2022-12-22T02:40:32;6.50;99.90
16102;DHT22;56411;52.964;10.540;2022-12-22T02:43:30;6.50;99.90
16102;DHT22;56411;52.964;10.540;2022-12-22T02:46:23;6.50;99.90
16102;DHT22;56411;52.964;10.540;2022-12-22T02:49:14;6.50;99.90
16102;DHT22;56411;52.964;10.540;2022-12-22T02:52:08;6.50;99.90
16102;DHT22;56411;52.964;10.540;2022-12-22T02:54:54;6.50;99.90
16102;DHT22;56411;52.964;10.540;2022-12-22T02:57:38;6.50;99.90
16102;DHT22;56411;52.964;10.540;2022-12-22T03:00:23;6.50;99.90
16102;DHT22;56411;52.964;10.540;2022-12-22T03:03:08;6.50;99.90
16102;DHT22;56411;52.964;10.540;2022-12-22T03:05:52;6.50;99.90
16102;DHT22;56411;52.964;10.540;2022-12-22T03:08:36;6.50;99.90
16102;DHT22;56411;52.964;10.540;2022-12-22T03:11:21;6.50;99.90
16102;DHT22;56411;52.964;10.540;2022-12-22T03:14:05;6.50;99.90
16102;DHT22;56411;52.964;10.540;2022-12-22T03:16:51;6.50;99.90
16102;DHT22;56411;52.964;10.540;2022-12-22T03:19:35;6.50;99.90
16102;DHT22;56411;52.964;10.540;2022-12-22T03:22:19;6.60;99.90
16102;DHT22;56411;52.964;10.540;2022-12-22T03:25:05;6.50;99.90
16102;DHT22;56411;52.964;10.540;2022-12-22T03:27:49;6.50;99.90
16102;DHT22;56411;52.964;10.540;2022-12-22T03:30:16;6.50;99.90
16102;DHT22;56411;52.964;10.540;2022-12-22T03:32:45;6.50;99.90
16102;DHT22;56411;52.964;10.540;2022-12-22T03:35:12;6.50;99.90
16102;DHT22;56411;52.964;10.540;2022-12-22T03:37:39;6.50;99.90
16102;DHT22;56411;52.964;10.540;2022-12-22T03:40:07;6.50;99.90
16102;DHT22;56411;52.964;10.540;2022-12-22T03:42:36;6.50;99.90
16102;DHT22;56411;52.964;10.540;2022-12-22T03:45:20;6.40;99.90
16102;DHT22;56411;52.964;10.540;2022-12-22T03:48:06;6.50;99.90
16102;DHT22;56411;52.964;10.540;2022-12-22T03:50:34;6.40;99.90
16102;DHT22;56411;52.964;10.540;2022-12-22T03:53:01;6.50;99.90
16102;DHT22;56411;52.964;10.540;2022-12-22T03:55:28;6.50;99.90
16102;DHT22;56411;52.964;10.540;2022-12-22T03:57:56;6.50;99.90
16102;DHT22;56411;52.964;10.540;2022-12-22T04:00:23;6.40;99.90
16102;DHT22;56411;52.964;10.540;2022-12-22T04:02:50;6.50;99.90
16102;DHT22;56411;52.964;10.540;2022-12-22T04:05:19;6.50;99.90
16102;DHT22;56411;52.964;10.540;2022-12-22T04:07:46;6.50;99.90
16102;DHT22;56411;52.964;10.540;2022-12-22T04:10:13;6.50;99.90
16102;DHT22;56411;52.964;10.540;2022-12-22T04:12:54;6.50;99.90
16102;DHT22;56411;52.964;10.540;2022-12-22T04:15:22;6.50;99.90
16102;DHT22;56411;52.964;10.540;2022-12-22T04:17:50;6.50;99.90
16102;DHT22;56411;52.964;10.540;2022-12-22T04:20:21;6.50;99.90
16102;DHT22;56411;52.964;10.540;2022-12-22T04:22:51;6.50;99.90
16102;DHT22;56411;52.964;10.540;2022-12-22T04:25:19;6.50;99.90
16102;DHT22;56411;52.964;10.540;2022-12-22T04:27:46;6.50;99.90
16102;DHT22;56411;52.964;10.540;2022-12-22T04:30:14;6.50;99.90
16102;DHT22;56411;52.964;10.540;2022-12-22T04:32:41;6.60;99.90
16102;DHT22;56411;52.964;10.540;2022-12-22T04:35:09;6.60;99.90
16102;DHT22;56411;52.964;10.540;2022-12-22T04:37:39;6.60;99.90
16102;DHT22;56411;52.964;10.540;2022-12-22T04:40:08;6.50;99.90
16102;DHT22;56411;52.964;10.540;2022-12-22T04:42:35;6.50;99.90
16102;DHT22;56411;52.964;10.540;2022-12-22T04:45:02;6.50;99.90
16102;DHT22;56411;52.964;10.540;2022-12-22T04:47:29;6.50;99.90
16102;DHT22;56411;52.964;10.540;2022-12-22T04:49:57;6.50;99.90
16102;DHT22;56411;52.964;10.540;2022-12-22T04:52:24;6.50;99.90
16102;DHT22;56411;52.964;10.540;2022-12-22T04:54:53;6.50;99.90
16102;DHT22;56411;52.964;10.540;2022-12-22T04:57:20;6.50;99.90
16102;DHT22;56411;52.964;10.540;2022-12-22T04:59:47;6.50;99.90
16102;DHT22;56411;52.964;10.540;2022-12-22T05:02:15;6.50;99.90
16102;DHT22;56411;52.964;10.540;2022-12-22T05:04:42;6.50;99.90
16102;DHT22;56411;52.964;10.540;2022-12-22T05:07:09;6.40;99.90
16102;DHT22;56411;52.964;10.540;2022-12-22T05:09:36;6.50;99.90
16102;DHT22;56411;52.964;10.540;2022-12-22T05:12:05;6.50;99.90
16102;DHT22;56411;52.964;10.540;2022-12-22T05:14:52;6.50;99.90
16102;DHT22;56411;52.964;10.540;2022-12-22T05:17:19;6.40;99.90
16102;DHT22;56411;52.964;10.540;2022-12-22T05:19:46;6.40;99.90
16102;DHT22;56411;52.964;10.540;2022-12-22T05:22:12;6.40;99.90
16102;DHT22;56411;52.964;10.540;2022-12-22T05:24:40;6.50;99.90
16102;DHT22;56411;52.964;10.540;2022-12-22T05:27:09;6.50;99.90
16102;DHT22;56411;52.964;10.540;2022-12-22T05:29:36;6.50;99.90
16102;DHT22;56411;52.964;10.540;2022-12-22T05:32:04;6.50;99.90
16102;DHT22;56411;52.964;10.540;2022-12-22T05:34:31;6.40;99.90
16102;DHT22;56411;52.964;10.540;2022-12-22T05:36:58;6.40;99.90
16102;DHT22;56411;52.964;10.540;2022-12-22T05:39:42;6.40;99.90
16102;DHT22;56411;52.964;10.540;2022-12-22T05:42:11;6.40;99.90
16102;DHT22;56411;52.964;10.540;2022-12-22T05:44:38;6.40;99.90
16102;DHT22;56411;52.964;10.540;2022-12-22T05:47:05;6.40;99.90
16102;DHT22;56411;52.964;10.540;2022-12-22T05:49:32;6.50;99.90
16102;DHT22;56411;52.964;10.540;2022-12-22T05:51:59;6.40;99.90
16102;DHT22;56411;52.964;10.540;2022-12-22T05:54:26;6.40;99.90
16102;DHT22;56411;52.964;10.540;2022-12-22T05:56:53;6.40;99.90
16102;DHT22;56411;52.964;10.540;2022-12-22T05:59:21;6.40;99.90
16102;DHT22;56411;52.964;10.540;2022-12-22T06:01:48;6.30;99.90
16102;DHT22;56411;52.964;10.540;2022-12-22T06:04:15;6.30;99.90
16102;DHT22;56411;52.964;10.540;2022-12-22T06:06:43;6.30;99.90
16102;DHT22;56411;52.964;10.540;2022-12-22T06:09:10;6.30;99.90
16102;DHT22;56411;52.964;10.540;2022-12-22T06:11:36;6.30;99.90
16102;DHT22;56411;52.964;10.540;2022-12-22T06:14:04;6.30;99.90
16102;DHT22;56411;52.964;10.540;2022-12-22T06:16:32;6.30;99.90
16102;DHT22;56411;52.964;10.540;2022-12-22T06:18:59;6.30;99.90
16102;DHT22;56411;52.964;10.540;2022-12-22T06:21:26;6.30;99.90
16102;DHT22;56411;52.964;10.540;2022-12-22T06:23:53;6.40;99.90
16102;DHT22;56411;52.964;10.540;2022-12-22T06:26:20;6.40;99.90
16102;DHT22;56411;52.964;10.540;2022-12-22T06:28:47;6.40;99.90
16102;DHT22;56411;52.964;10.540;2022-12-22T06:31:14;6.40;99.90
16102;DHT22;56411;52.964;10.540;2022-12-22T06:33:43;6.40;99.90
16102;DHT22;56411;52.964;10.540;2022-12-22T06:36:11;6.30;99.90
16102;DHT22;56411;52.964;10.540;2022-12-22T06:38:38;6.30;99.90
16102;DHT22;56411;52.964;10.540;2022-12-22T06:41:05;6.30;99.90
16102;DHT22;56411;52.964;10.540;2022-12-22T06:43:32;6.30;99.90
16102;DHT22;56411;52.964;10.540;2022-12-22T06:45:58;6.30;99.90
16102;DHT22;56411;52.964;10.540;2022-12-22T06:48:25;6.40;99.90
16102;DHT22;56411;52.964;10.540;2022-12-22T06:50:58;6.40;99.90
16102;DHT22;56411;52.964;10.540;2022-12-22T06:53:25;6.40;99.90
16102;DHT22;56411;52.964;10.540;2022-12-22T06:55:53;6.40;99.90
16102;DHT22;56411;52.964;10.540;2022-12-22T06:58:20;6.40;99.90
16102;DHT22;56411;52.964;10.540;2022-12-22T07:00:47;6.30;99.90
16102;DHT22;56411;52.964;10.540;2022-12-22T07:03:15;6.30;99.90
16102;DHT22;56411;52.964;10.540;2022-12-22T07:05:44;6.30;99.90
16102;DHT22;56411;52.964;10.540;2022-12-22T07:08:12;6.40;99.90
16102;DHT22;56411;52.964;10.540;2022-12-22T07:10:39;6.40;99.90
16102;DHT22;56411;52.964;10.540;2022-12-22T07:13:27;6.40;99.90
16102;DHT22;56411;52.964;10.540;2022-12-22T07:15:54;6.40;99.90
16102;DHT22;56411;52.964;10.540;2022-12-22T07:18:21;6.50;99.90
16102;DHT22;56411;52.964;10.540;2022-12-22T07:20:48;6.50;99.90
16102;DHT22;56411;52.964;10.540;2022-12-22T07:23:17;6.50;99.90
16102;DHT22;56411;52.964;10.540;2022-12-22T07:25:44;6.40;99.90
16102;DHT22;56411;52.964;10.540;2022-12-22T07:28:11;6.40;99.90
16102;DHT22;56411;52.964;10.540;2022-12-22T07:30:38;6.40;99.90
16102;DHT22;56411;52.964;10.540;2022-12-22T07:33:06;6.40;99.90
16102;DHT22;56411;52.964;10.540;2022-12-22T07:35:33;6.50;99.90
16102;DHT22;56411;52.964;10.540;2022-12-22T07:38:00;6.50;99.90
16102;DHT22;56411;52.964;10.540;2022-12-22T07:40:29;6.50;99.90
16102;DHT22;56411;52.964;10.540;2022-12-22T07:42:56;6.50;99.90
16102;DHT22;56411;52.964;10.540;2022-12-22T07:45:23;6.50;99.90
16102;DHT22;56411;52.964;10.540;2022-12-22T07:47:50;6.50;99.90
16102;DHT22;56411;52.964;10.540;2022-12-22T07:50:18;6.50;99.90
16102;DHT22;56411;52.964;10.540;2022-12-22T07:52:55;6.50;99.90
16102;DHT22;56411;52.964;10.540;2022-12-22T07:55:23;6.50;99.90
16102;DHT22;56411;52.964;10.540;2022-12-22T07:57:52;6.50;99.90
16102;DHT22;56411;52.964;10.540;2022-12-22T08:00:21;6.50;99.90
16102;DHT22;56411;52.964;10.540;2022-12-22T08:02:51;6.60;99.90
16102;DHT22;56411;52.964;10.540;2022-12-22T08:05:19;6.50;99.90
16102;DHT22;56411;52.964;10.540;2022-12-22T08:07:48;6.60;99.90
16102;DHT22;56411;52.964;10.540;2022-12-22T08:10:16;6.60;99.90
16102;DHT22;56411;52.964;10.540;2022-12-22T08:12:43;6.70;99.90
16102;DHT22;56411;52.964;10.540;2022-12-22T08:15:12;6.70;99.90
16102;DHT22;56411;52.964;10.540;2022-12-22T08:17:39;6.80;99.90
16102;DHT22;56411;52.964;10.540;2022-12-22T08:20:07;6.70;99.90
16102;DHT22;56411;52.964;10.540;2022-12-22T08:22:35;6.60;99.90
16102;DHT22;56411;52.964;10.540;2022-12-22T08:25:03;6.50;99.90
16102;DHT22;56411;52.964;10.540;2022-12-22T08:27:33;6.50;99.90
16102;DHT22;56411;52.964;10.540;2022-12-22T08:30:06;6.60;99.90
16102;DHT22;56411;52.964;10.540;2022-12-22T08:32:35;6.70;99.90
16102;DHT22;56411;52.964;10.540;2022-12-22T08:35:03;6.70;99.90
16102;DHT22;56411;52.964;10.540;2022-12-22T08:37:31;6.80;99.90
16102;DHT22;56411;52.964;10.540;2022-12-22T08:40:09;6.80;99.90
16102;DHT22;56411;52.964;10.540;2022-12-22T08:42:37;6.90;99.90
16102;DHT22;56411;52.964;10.540;2022-12-22T08:45:05;7.00;99.90
16102;DHT22;56411;52.964;10.540;2022-12-22T08:47:35;7.00;99.90
16102;DHT22;56411;52.964;10.540;2022-12-22T08:50:03;7.10;99.90
16102;DHT22;56411;52.964;10.540;2022-12-22T08:52:30;7.10;99.90
16102;DHT22;56411;52.964;10.540;2022-12-22T08:54:57;7.10;99.90
16102;DHT22;56411;52.964;10.540;2022-12-22T08:57:24;7.10;99.90
16102;DHT22;56411;52.964;10.540;2022-12-22T08:59:51;7.10;99.90
16102;DHT22;56411;52.964;10.540;2022-12-22T09:02:18;7.00;99.90
16102;DHT22;56411;52.964;10.540;2022-12-22T09:04:46;6.90;99.90
16102;DHT22;56411;52.964;10.540;2022-12-22T09:07:14;6.90;99.90
16102;DHT22;56411;52.964;10.540;2022-12-22T09:09:41;7.00;99.90
16102;DHT22;56411;52.964;10.540;2022-12-22T09:12:08;7.00;99.90
16102;DHT22;56411;52.964;10.540;2022-12-22T09:14:35;7.10;99.90
16102;DHT22;56411;52.964;10.540;2022-12-22T09:17:03;7.10;99.90
16102;DHT22;56411;52.964;10.540;2022-12-22T09:19:33;7.10;99.90
16102;DHT22;56411;52.964;10.540;2022-12-22T09:22:09;7.10;99.90
16102;DHT22;56411;52.964;10.540;2022-12-22T09:24:46;7.10;99.90
16102;DHT22;56411;52.964;10.540;2022-12-22T09:27:13;7.20;99.90
16102;DHT22;56411;52.964;10.540;2022-12-22T09:29:41;7.20;99.90
16102;DHT22;56411;52.964;10.540;2022-12-22T09:32:08;7.20;99.90
16102;DHT22;56411;52.964;10.540;2022-12-22T09:34:35;7.20;99.90
16102;DHT22;56411;52.964;10.540;2022-12-22T09:37:02;7.20;99.90
16102;DHT22;56411;52.964;10.540;2022-12-22T09:39:32;7.20;99.90
16102;DHT22;56411;52.964;10.540;2022-12-22T09:42:00;7.20;99.90
16102;DHT22;56411;52.964;10.540;2022-12-22T09:44:30;7.20;99.90
16102;DHT22;56411;52.964;10.540;2022-12-22T09:47:01;7.10;99.90
16102;DHT22;56411;52.964;10.540;2022-12-22T09:49:30;7.10;99.90
16102;DHT22;56411;52.964;10.540;2022-12-22T09:51:59;7.10;99.90
16102;DHT22;56411;52.964;10.540;2022-12-22T09:54:28;7.10;99.90
16102;DHT22;56411;52.964;10.540;2022-12-22T09:56:57;7.10;99.90
16102;DHT22;56411;52.964;10.540;2022-12-22T09:59:26;7.10;99.90
16102;DHT22;56411;52.964;10.540;2022-12-22T10:02:10;7.20;99.90
16102;DHT22;56411;52.964;10.540;2022-12-22T10:05:03;7.20;99.90
16102;DHT22;56411;52.964;10.540;2022-12-22T10:07:34;7.20;99.90
16102;DHT22;56411;52.964;10.540;2022-12-22T10:10:06;7.20;99.90
16102;DHT22;56411;52.964;10.540;2022-12-22T10:12:35;7.20;99.90
16102;DHT22;56411;52.964;10.540;2022-12-22T10:15:02;7.30;99.90
16102;DHT22;56411;52.964;10.540;2022-12-22T10:17:31;7.30;99.90
16102;DHT22;56411;52.964;10.540;2022-12-22T10:20:20;7.30;99.90
16102;DHT22;56411;52.964;10.540;2022-12-22T10:22:52;7.30;99.90
16102;DHT22;56411;52.964;10.540;2022-12-22T10:25:27;7.40;99.90
16102;DHT22;56411;52.964;10.540;2022-12-22T10:27:57;7.40;99.90
16102;DHT22;56411;52.964;10.540;2022-12-22T10:30:26;7.30;99.90
16102;DHT22;56411;52.964;10.540;2022-12-22T10:33:04;7.40;99.90
16102;DHT22;56411;52.964;10.540;2022-12-22T10:35:48;7.40;99.90
16102;DHT22;56411;52.964;10.540;2022-12-22T10:38:20;7.40;99.90
16102;DHT22;56411;52.964;10.540;2022-12-22T10:40:50;7.40;99.90
16102;DHT22;56411;52.964;10.540;2022-12-22T10:43:21;7.40;99.90
16102;DHT22;56411;52.964;10.540;2022-12-22T10:45:50;7.40;99.90
16102;DHT22;56411;52.964;10.540;2022-12-22T10:48:25;7.40;99.90
16102;DHT22;56411;52.964;10.540;2022-12-22T10:50:53;7.40;99.90
16102;DHT22;56411;52.964;10.540;2022-12-22T10:53:21;7.50;99.90
16102;DHT22;56411;52.964;10.540;2022-12-22T10:56:04;7.50;99.90
16102;DHT22;56411;52.964;10.540;2022-12-22T10:58:46;7.50;99.90
16102;DHT22;56411;52.964;10.540;2022-12-22T11:01:22;7.60;99.90
16102;DHT22;56411;52.964;10.540;2022-12-22T11:03:50;7.70;99.90
16102;DHT22;56411;52.964;10.540;2022-12-22T11:06:17;7.70;99.90
16102;DHT22;56411;52.964;10.540;2022-12-22T11:08:45;7.80;99.90
16102;DHT22;56411;52.964;10.540;2022-12-22T11:11:16;7.80;99.90
16102;DHT22;56411;52.964;10.540;2022-12-22T11:14:05;7.80;99.90
16102;DHT22;56411;52.964;10.540;2022-12-22T11:16:39;7.90;99.90
16102;DHT22;56411;52.964;10.540;2022-12-22T11:19:40;8.00;99.90
16102;DHT22;56411;52.964;10.540;2022-12-22T11:22:21;7.90;99.90
16102;DHT22;56411;52.964;10.540;2022-12-22T11:24:59;8.00;99.90
16102;DHT22;56411;52.964;10.540;2022-12-22T11:27:34;8.00;99.90
16102;DHT22;56411;52.964;10.540;2022-12-22T11:30:07;8.00;99.90
16102;DHT22;56411;52.964;10.540;2022-12-22T11:33:04;8.10;99.90
16102;DHT22;56411;52.964;10.540;2022-12-22T11:35:48;8.20;99.90
16102;DHT22;56411;52.964;10.540;2022-12-22T11:38:21;8.30;99.90
16102;DHT22;56411;52.964;10.540;2022-12-22T11:40:56;8.30;99.90
16102;DHT22;56411;52.964;10.540;2022-12-22T11:43:29;8.40;99.90
16102;DHT22;56411;52.964;10.540;2022-12-22T11:46:15;8.40;99.90
16102;DHT22;56411;52.964;10.540;2022-12-22T11:49:04;8.40;99.90
16102;DHT22;56411;52.964;10.540;2022-12-22T11:51:50;8.50;99.90
16102;DHT22;56411;52.964;10.540;2022-12-22T11:57:28;8.60;99.90
16102;DHT22;56411;52.964;10.540;2022-12-22T12:00:04;8.60;99.90
16102;DHT22;56411;52.964;10.540;2022-12-22T12:03:03;8.60;99.90
16102;DHT22;56411;52.964;10.540;2022-12-22T12:05:50;8.60;99.90
16102;DHT22;56411;52.964;10.540;2022-12-22T12:08:28;8.50;99.90
16102;DHT22;56411;52.964;10.540;2022-12-22T12:11:08;8.50;99.90
16102;DHT22;56411;52.964;10.540;2022-12-22T12:13:49;8.60;99.90
16102;DHT22;56411;52.964;10.540;2022-12-22T12:16:28;8.60;99.90
16102;DHT22;56411;52.964;10.540;2022-12-22T12:19:27;8.60;99.90
16102;DHT22;56411;52.964;10.540;2022-12-22T12:21:58;8.70;99.90
16102;DHT22;56411;52.964;10.540;2022-12-22T12:24:41;8.70;99.90
16102;DHT22;56411;52.964;10.540;2022-12-22T12:27:39;8.70;99.90
16102;DHT22;56411;52.964;10.540;2022-12-22T12:30:17;8.70;99.90
16102;DHT22;56411;52.964;10.540;2022-12-22T12:32:49;8.70;99.90
16102;DHT22;56411;52.964;10.540;2022-12-22T12:35:31;8.70;99.90
16102;DHT22;56411;52.964;10.540;2022-12-22T12:38:06;8.70;99.90
16102;DHT22;56411;52.964;10.540;2022-12-22T12:40:43;8.70;99.90
16102;DHT22;56411;52.964;10.540;2022-12-22T12:43:13;8.70;99.90
16102;DHT22;56411;52.964;10.540;2022-12-22T12:45:43;8.70;99.90
16102;DHT22;56411;52.964;10.540;2022-12-22T12:48:37;8.70;99.90
16102;DHT22;56411;52.964;10.540;2022-12-22T12:54:37;8.70;99.90
16102;DHT22;56411;52.964;10.540;2022-12-22T12:57:24;8.70;99.90
16102;DHT22;56411;52.964;10.540;2022-12-22T12:59:53;8.70;99.90
16102;DHT22;56411;52.964;10.540;2022-12-22T13:02:54;8.70;99.90
16102;DHT22;56411;52.964;10.540;2022-12-22T13:05:30;8.70;99.90
16102;DHT22;56411;52.964;10.540;2022-12-22T13:08:10;8.70;99.90
16102;DHT22;56411;52.964;10.540;2022-12-22T13:10:42;8.70;99.90
16102;DHT22;56411;52.964;10.540;2022-12-22T13:13:12;8.60;99.90
16102;DHT22;56411;52.964;10.540;2022-12-22T13:15:41;8.60;99.90
16102;DHT22;56411;52.964;10.540;2022-12-22T13:18:37;8.70;99.90
16102;DHT22;56411;52.964;10.540;2022-12-22T13:21:07;8.60;99.90
16102;DHT22;56411;52.964;10.540;2022-12-22T13:23:40;8.60;99.90
16102;DHT22;56411;52.964;10.540;2022-12-22T13:26:12;8.50;99.90
16102;DHT22;56411;52.964;10.540;2022-12-22T13:28:42;8.50;99.90
16102;DHT22;56411;52.964;10.540;2022-12-22T13:31:15;8.50;99.90
16102;DHT22;56411;52.964;10.540;2022-12-22T13:33:45;8.50;99.90
16102;DHT22;56411;52.964;10.540;2022-12-22T13:36:17;8.40;99.90
16102;DHT22;56411;52.964;10.540;2022-12-22T13:38:45;8.20;99.90
16102;DHT22;56411;52.964;10.540;2022-12-22T13:41:16;8.10;99.90
16102;DHT22;56411;52.964;10.540;2022-12-22T13:43:54;8.00;99.90
16102;DHT22;56411;52.964;10.540;2022-12-22T13:46:22;7.90;99.90
16102;DHT22;56411;52.964;10.540;2022-12-22T13:48:51;7.80;99.90
16102;DHT22;56411;52.964;10.540;2022-12-22T13:51:22;7.80;99.90
16102;DHT22;56411;52.964;10.540;2022-12-22T13:53:52;8.00;99.90
16102;DHT22;56411;52.964;10.540;2022-12-22T13:56:24;8.00;99.90
16102;DHT22;56411;52.964;10.540;2022-12-22T13:58:54;8.00;99.90
16102;DHT22;56411;52.964;10.540;2022-12-22T14:01:24;8.10;99.90
16102;DHT22;56411;52.964;10.540;2022-12-22T14:03:52;8.40;99.90
16102;DHT22;56411;52.964;10.540;2022-12-22T14:06:27;8.50;99.90
16102;DHT22;56411;52.964;10.540;2022-12-22T14:09:11;8.70;99.90
16102;DHT22;56411;52.964;10.540;2022-12-22T14:11:41;9.10;99.90
16102;DHT22;56411;52.964;10.540;2022-12-22T14:14:15;9.30;99.90
16102;DHT22;56411;52.964;10.540;2022-12-22T14:16:45;9.70;99.90
16102;DHT22;56411;52.964;10.540;2022-12-22T14:19:13;9.80;99.90
16102;DHT22;56411;52.964;10.540;2022-12-22T14:21:41;9.80;99.90
16102;DHT22;56411;52.964;10.540;2022-12-22T14:24:14;9.80;99.90
16102;DHT22;56411;52.964;10.540;2022-12-22T14:26:44;9.70;99.90
16102;DHT22;56411;52.964;10.540;2022-12-22T14:29:14;9.50;99.90
16102;DHT22;56411;52.964;10.540;2022-12-22T14:31:53;9.20;99.90
16102;DHT22;56411;52.964;10.540;2022-12-22T14:34:25;8.90;99.90
16102;DHT22;56411;52.964;10.540;2022-12-22T14:36:52;8.70;99.90
16102;DHT22;56411;52.964;10.540;2022-12-22T14:39:22;8.50;99.90
16102;DHT22;56411;52.964;10.540;2022-12-22T14:41:53;8.30;99.90
16102;DHT22;56411;52.964;10.540;2022-12-22T14:44:24;8.00;99.90
16102;DHT22;56411;52.964;10.540;2022-12-22T14:47:06;7.60;99.90
16102;DHT22;56411;52.964;10.540;2022-12-22T14:49:45;7.30;99.90
16102;DHT22;56411;52.964;10.540;2022-12-22T14:52:20;7.00;99.90
16102;DHT22;56411;52.964;10.540;2022-12-22T14:54:50;6.80;99.90
16102;DHT22;56411;52.964;10.540;2022-12-22T14:57:27;6.60;99.90
16102;DHT22;56411;52.964;10.540;2022-12-22T15:00:00;6.50;99.90
16102;DHT22;56411;52.964;10.540;2022-12-22T15:02:29;6.30;99.90
16102;DHT22;56411;52.964;10.540;2022-12-22T15:05:08;6.30;99.90
16102;DHT22;56411;52.964;10.540;2022-12-22T15:07:44;6.20;99.90
16102;DHT22;56411;52.964;10.540;2022-12-22T15:10:11;6.00;99.90
16102;DHT22;56411;52.964;10.540;2022-12-22T15:12:40;5.90;99.90
16102;DHT22;56411;52.964;10.540;2022-12-22T15:15:13;5.90;99.90
16102;DHT22;56411;52.964;10.540;2022-12-22T15:17:43;5.80;99.90
16102;DHT22;56411;52.964;10.540;2022-12-22T15:20:14;5.80;99.90
16102;DHT22;56411;52.964;10.540;2022-12-22T15:22:44;5.80;99.90
16102;DHT22;56411;52.964;10.540;2022-12-22T15:25:12;5.80;99.90
16102;DHT22;56411;52.964;10.540;2022-12-22T15:27:41;5.70;99.90
16102;DHT22;56411;52.964;10.540;2022-12-22T15:30:10;5.70;99.90
16102;DHT22;56411;52.964;10.540;2022-12-22T15:32:39;5.70;99.90
16102;DHT22;56411;52.964;10.540;2022-12-22T15:35:18;5.70;99.90
16102;DHT22;56411;52.964;10.540;2022-12-22T15:37:46;5.70;99.90
16102;DHT22;56411;52.964;10.540;2022-12-22T15:40:15;5.60;99.90
16102;DHT22;56411;52.964;10.540;2022-12-22T15:42:44;5.60;99.90
16102;DHT22;56411;52.964;10.540;2022-12-22T15:45:15;5.50;99.90
16102;DHT22;56411;52.964;10.540;2022-12-22T15:47:51;5.50;99.90
16102;DHT22;56411;52.964;10.540;2022-12-22T15:50:20;5.40;99.90
16102;DHT22;56411;52.964;10.540;2022-12-22T15:52:52;5.40;99.90
16102;DHT22;56411;52.964;10.540;2022-12-22T15:55:20;5.40;99.90
16102;DHT22;56411;52.964;10.540;2022-12-22T15:57:50;5.30;99.90
16102;DHT22;56411;52.964;10.540;2022-12-22T16:00:20;5.30;99.90
16102;DHT22;56411;52.964;10.540;2022-12-22T16:02:47;5.30;99.90
16102;DHT22;56411;52.964;10.540;2022-12-22T16:05:15;5.20;99.90
16102;DHT22;56411;52.964;10.540;2022-12-22T16:07:44;5.20;99.90
16102;DHT22;56411;52.964;10.540;2022-12-22T16:10:22;5.30;99.90
16102;DHT22;56411;52.964;10.540;2022-12-22T16:12:52;5.30;99.90
16102;DHT22;56411;52.964;10.540;2022-12-22T16:15:25;5.20;99.90
16102;DHT22;56411;52.964;10.540;2022-12-22T16:17:53;5.20;99.90
16102;DHT22;56411;52.964;10.540;2022-12-22T16:20:20;5.20;99.90
16102;DHT22;56411;52.964;10.540;2022-12-22T16:22:48;5.20;99.90